sensor_id;sensor_type;location;lat;lon;timestamp;temperature;humidity
49821;DHT22;36893;52.520;13.450;2022-10-16T00:04:18;23.10;69.40
49821;DHT22;36893;52.520;13.450;2022-10-16T00:14:19;23.20;69.40
49821;DHT22;36893;52.520;13.450;2022-10-16T00:24:20;23.10;69.40
49821;DHT22;36893;52.520;13.450;2022-10-16T00:34:20;23.20;69.40
49821;DHT22;36893;52.520;13.450;2022-10-16T00:44:47;23.20;69.50
49821;DHT22;36893;52.520;13.450;2022-10-16T00:54:53;23.10;69.50
49821;DHT22;36893;52.520;13.450;2022-10-16T01:04:54;23.10;69.40
49821;DHT22;36893;52.520;13.450;2022-10-16T01:15:00;23.10;69.40
49821;DHT22;36893;52.520;13.450;2022-10-16T01:25:09;23.10;69.50
49821;DHT22;36893;52.520;13.450;2022-10-16T01:35:25;23.10;69.50
49821;DHT22;36893;52.520;13.450;2022-10-16T01:45:29;23.10;69.50
49821;DHT22;36893;52.520;13.450;2022-10-16T01:55:35;23.10;69.50
49821;DHT22;36893;52.520;13.450;2022-10-16T02:05:51;23.10;69.50
49821;DHT22;36893;52.520;13.450;2022-10-16T02:15:53;23.10;69.60
49821;DHT22;36893;52.520;13.450;2022-10-16T02:25:55;23.10;69.50
49821;DHT22;36893;52.520;13.450;2022-10-16T02:35:57;23.10;69.50
49821;DHT22;36893;52.520;13.450;2022-10-16T02:45:58;23.10;69.50
49821;DHT22;36893;52.520;13.450;2022-10-16T02:55:59;23.10;69.60
49821;DHT22;36893;52.520;13.450;2022-10-16T03:06:00;23.10;69.60
49821;DHT22;36893;52.520;13.450;2022-10-16T03:16:00;23.10;69.60
49821;DHT22;36893;52.520;13.450;2022-10-16T03:26:01;23.10;69.60
49821;DHT22;36893;52.520;13.450;2022-10-16T03:36:02;23.10;69.60
49821;DHT22;36893;52.520;13.450;2022-10-16T03:46:02;23.10;69.60
49821;DHT22;36893;52.520;13.450;2022-10-16T03:56:03;23.10;69.60
49821;DHT22;36893;52.520;13.450;2022-10-16T04:06:04;23.10;69.60
49821;DHT22;36893;52.520;13.450;2022-10-16T04:16:05;23.10;69.70
49821;DHT22;36893;52.520;13.450;2022-10-16T04:26:05;23.10;69.70
49821;DHT22;36893;52.520;13.450;2022-10-16T04:36:08;23.10;69.70
49821;DHT22;36893;52.520;13.450;2022-10-16T04:46:09;23.10;69.80
49821;DHT22;36893;52.520;13.450;2022-10-16T04:56:10;23.10;69.80
49821;DHT22;36893;52.520;13.450;2022-10-16T05:06:11;23.10;69.80
49821;DHT22;36893;52.520;13.450;2022-10-16T05:16:12;23.10;69.80
49821;DHT22;36893;52.520;13.450;2022-10-16T05:26:12;23.10;69.80
49821;DHT22;36893;52.520;13.450;2022-10-16T05:36:14;23.10;70.00
49821;DHT22;36893;52.520;13.450;2022-10-16T05:46:20;23.10;70.30
49821;DHT22;36893;52.520;13.450;2022-10-16T05:56:21;23.10;70.40
49821;DHT22;36893;52.520;13.450;2022-10-16T06:06:25;23.10;70.70
49821;DHT22;36893;52.520;13.450;2022-10-16T06:16:27;23.20;71.00
49821;DHT22;36893;52.520;13.450;2022-10-16T06:26:30;23.20;71.00
49821;DHT22;36893;52.520;13.450;2022-10-16T06:36:31;23.20;71.10
49821;DHT22;36893;52.520;13.450;2022-10-16T06:46:32;23.10;71.10
49821;DHT22;36893;52.520;13.450;2022-10-16T06:56:33;23.10;71.10
49821;DHT22;36893;52.520;13.450;2022-10-16T07:06:34;23.10;71.10
49821;DHT22;36893;52.520;13.450;2022-10-16T07:16:37;23.20;71.20
49821;DHT22;36893;52.520;13.450;2022-10-16T07:26:39;23.10;71.00
49821;DHT22;36893;52.520;13.450;2022-10-16T07:36:41;23.10;71.10
49821;DHT22;36893;52.520;13.450;2022-10-16T07:46:44;23.10;71.20
49821;DHT22;36893;52.520;13.450;2022-10-16T07:56:49;23.10;71.10
49821;DHT22;36893;52.520;13.450;2022-10-16T08:06:50;23.10;71.10
49821;DHT22;36893;52.520;13.450;2022-10-16T08:16:50;23.20;71.20
49821;DHT22;36893;52.520;13.450;2022-10-16T08:26:53;23.20;71.20
49821;DHT22;36893;52.520;13.450;2022-10-16T08:36:55;23.20;71.20
49821;DHT22;36893;52.520;13.450;2022-10-16T08:47:21;23.20;71.10
49821;DHT22;36893;52.520;13.450;2022-10-16T08:57:25;23.20;71.20
49821;DHT22;36893;52.520;13.450;2022-10-16T09:18:32;23.20;71.30
49821;DHT22;36893;52.520;13.450;2022-10-16T09:28:35;23.20;71.30
49821;DHT22;36893;52.520;13.450;2022-10-16T09:38:36;23.20;71.10
49821;DHT22;36893;52.520;13.450;2022-10-16T09:48:43;23.20;71.10
49821;DHT22;36893;52.520;13.450;2022-10-16T09:58:50;23.30;71.20
49821;DHT22;36893;52.520;13.450;2022-10-16T10:09:06;23.30;71.10
49821;DHT22;36893;52.520;13.450;2022-10-16T10:19:23;23.40;71.10
49821;DHT22;36893;52.520;13.450;2022-10-16T10:29:55;23.40;70.90
49821;DHT22;36893;52.520;13.450;2022-10-16T10:40:51;23.40;71.00
49821;DHT22;36893;52.520;13.450;2022-10-16T10:51:44;23.40;71.00
49821;DHT22;36893;52.520;13.450;2022-10-16T11:02:21;23.40;70.90
49821;DHT22;36893;52.520;13.450;2022-10-16T11:12:41;23.40;70.90
49821;DHT22;36893;52.520;13.450;2022-10-16T11:22:50;23.50;70.90
49821;DHT22;36893;52.520;13.450;2022-10-16T11:32:58;23.50;70.90
49821;DHT22;36893;52.520;13.450;2022-10-16T11:43:34;23.50;70.90
49821;DHT22;36893;52.520;13.450;2022-10-16T11:53:58;23.60;71.00
49821;DHT22;36893;52.520;13.450;2022-10-16T12:14:39;23.60;70.90
49821;DHT22;36893;52.520;13.450;2022-10-16T12:24:42;23.60;70.90
49821;DHT22;36893;52.520;13.450;2022-10-16T12:34:44;23.60;70.90
49821;DHT22;36893;52.520;13.450;2022-10-16T12:44:45;23.70;70.80
49821;DHT22;36893;52.520;13.450;2022-10-16T12:54:47;23.70;70.70
49821;DHT22;36893;52.520;13.450;2022-10-16T13:05:29;23.70;70.70
49821;DHT22;36893;52.520;13.450;2022-10-16T13:36:43;23.80;70.70
49821;DHT22;36893;52.520;13.450;2022-10-16T13:46:46;23.80;70.70
49821;DHT22;36893;52.520;13.450;2022-10-16T13:56:47;23.80;70.70
49821;DHT22;36893;52.520;13.450;2022-10-16T14:06:49;23.80;70.70
49821;DHT22;36893;52.520;13.450;2022-10-16T14:16:51;23.80;70.70
49821;DHT22;36893;52.520;13.450;2022-10-16T14:26:51;23.80;70.60
49821;DHT22;36893;52.520;13.450;2022-10-16T14:36:55;23.80;70.70
49821;DHT22;36893;52.520;13.450;2022-10-16T14:46:57;23.80;70.70
49821;DHT22;36893;52.520;13.450;2022-10-16T14:56:59;23.80;70.70
49821;DHT22;36893;52.520;13.450;2022-10-16T15:07:00;23.80;70.60
49821;DHT22;36893;52.520;13.450;2022-10-16T15:17:01;23.70;70.60
49821;DHT22;36893;52.520;13.450;2022-10-16T15:27:01;23.80;70.60
49821;DHT22;36893;52.520;13.450;2022-10-16T15:37:03;23.80;70.60
49821;DHT22;36893;52.520;13.450;2022-10-16T15:47:03;23.70;70.60
49821;DHT22;36893;52.520;13.450;2022-10-16T15:57:04;23.80;70.60
49821;DHT22;36893;52.520;13.450;2022-10-16T16:07:05;23.80;71.40
49821;DHT22;36893;52.520;13.450;2022-10-16T16:17:07;23.70;71.20
49821;DHT22;36893;52.520;13.450;2022-10-16T16:27:08;23.80;70.00
49821;DHT22;36893;52.520;13.450;2022-10-16T16:37:09;23.80;69.60
49821;DHT22;36893;52.520;13.450;2022-10-16T16:47:10;23.70;69.30
49821;DHT22;36893;52.520;13.450;2022-10-16T16:57:10;23.70;68.80
49821;DHT22;36893;52.520;13.450;2022-10-16T17:07:11;23.70;68.60
49821;DHT22;36893;52.520;13.450;2022-10-16T17:17:12;23.50;68.30
49821;DHT22;36893;52.520;13.450;2022-10-16T17:27:12;23.40;68.20
49821;DHT22;36893;52.520;13.450;2022-10-16T17:37:13;23.30;68.10
49821;DHT22;36893;52.520;13.450;2022-10-16T17:47:14;23.10;67.90
49821;DHT22;36893;52.520;13.450;2022-10-16T17:57:14;23.00;67.70
49821;DHT22;36893;52.520;13.450;2022-10-16T18:07:15;23.00;67.70
49821;DHT22;36893;52.520;13.450;2022-10-16T18:17:16;22.90;67.70
49821;DHT22;36893;52.520;13.450;2022-10-16T18:27:18;23.00;67.70
49821;DHT22;36893;52.520;13.450;2022-10-16T18:37:20;23.10;68.00
49821;DHT22;36893;52.520;13.450;2022-10-16T18:47:20;23.20;68.20
49821;DHT22;36893;52.520;13.450;2022-10-16T18:57:21;23.30;68.40
49821;DHT22;36893;52.520;13.450;2022-10-16T19:07:22;23.30;68.60
49821;DHT22;36893;52.520;13.450;2022-10-16T19:17:22;23.40;68.70
49821;DHT22;36893;52.520;13.450;2022-10-16T19:27:23;23.40;68.80
49821;DHT22;36893;52.520;13.450;2022-10-16T19:37:24;23.40;68.80
49821;DHT22;36893;52.520;13.450;2022-10-16T19:47:26;23.40;68.90
49821;DHT22;36893;52.520;13.450;2022-10-16T19:57:27;23.40;69.00
49821;DHT22;36893;52.520;13.450;2022-10-16T20:07:27;23.40;69.00
49821;DHT22;36893;52.520;13.450;2022-10-16T20:17:28;23.40;69.10
49821;DHT22;36893;52.520;13.450;2022-10-16T20:27:29;23.40;69.10
49821;DHT22;36893;52.520;13.450;2022-10-16T20:37:30;23.40;69.10
49821;DHT22;36893;52.520;13.450;2022-10-16T20:47:31;23.40;69.10
49821;DHT22;36893;52.520;13.450;2022-10-16T20:57:31;23.40;69.10
49821;DHT22;36893;52.520;13.450;2022-10-16T21:07:32;23.50;69.20
49821;DHT22;36893;52.520;13.450;2022-10-16T21:17:33;23.40;69.20
49821;DHT22;36893;52.520;13.450;2022-10-16T21:27:37;23.40;69.20
49821;DHT22;36893;52.520;13.450;2022-10-16T21:37:38;23.50;69.30
49821;DHT22;36893;52.520;13.450;2022-10-16T21:47:39;23.50;69.40
49821;DHT22;36893;52.520;13.450;2022-10-16T21:57:39;23.50;69.30
49821;DHT22;36893;52.520;13.450;2022-10-16T22:07:40;23.50;69.30
49821;DHT22;36893;52.520;13.450;2022-10-16T22:17:41;23.50;69.30
49821;DHT22;36893;52.520;13.450;2022-10-16T22:27:41;23.40;69.20
49821;DHT22;36893;52.520;13.450;2022-10-16T22:37:42;23.50;69.30
49821;DHT22;36893;52.520;13.450;2022-10-16T22:47:43;23.50;69.30
49821;DHT22;36893;52.520;13.450;2022-10-16T22:57:43;23.50;69.30
49821;DHT22;36893;52.520;13.450;2022-10-16T23:07:44;23.50;69.30
49821;DHT22;36893;52.520;13.450;2022-10-16T23:17:45;23.50;69.30
49821;DHT22;36893;52.520;13.450;2022-10-16T23:27:46;23.50;69.30
49821;DHT22;36893;52.520;13.450;2022-10-16T23:37:46;23.50;69.30
49821;DHT22;36893;52.520;13.450;2022-10-16T23:47:47;23.50;69.30
49821;DHT22;36893;52.520;13.450;2022-10-16T23:57:48;23.50;69.30
